LFRM

Le Mans-Arnage Airport

Le Mans/Arnage, France
TAF LFRM 260500Z 2606/2706 23005KT CAVOK BECMG 2620/2622 VRB03KT BECMG 2704/2706 14006KT
Issued Valid From Valid To
Apr-26 @ 05:00 UTC
(an hour ago)
Apr-26 @ 06:00 UTC
(a minute ago)
Apr-27 @ 06:00 UTC
(in 24 hours)
Apr-26 @ 06:00 to Apr-26 @ 20:00
TAF LFRM 260500Z 2606/2706 23005KT CAVOK
Wind Visibility Clouds Conditions
230° at 5 knots 10,000+ meters
  • No significant clouds
Becoming Apr-26 @ 20:00 to Apr-27 @ 04:00
BECMG 2620/2622 VRB03KT
Wind Visibility Clouds Conditions
Variable at 3 knots 10,000+ meters
  • No significant clouds
Becoming Apr-27 @ 04:00 to Apr-27 @ 06:00
BECMG 2704/2706 14006KT
Wind Visibility Clouds Conditions
140° at 6 knots 10,000+ meters
  • No significant clouds
TAF LFRM 260500Z 2606/2706 23005KT CAVOK BECMG 2620/2622 VRB03KT BECMG 2704/2706 14006KT
Issued Apr-26 @ 05:00 UTC
(an hour ago)
Valid From Apr-26 @ 06:00 UTC
(a minute ago)
Valid To Apr-27 @ 06:00 UTC
(in 24 hours)
Apr-26 @ 06:00 - Apr-26 @ 20:00
Wind Visibility
230° at 5 knots 10,000+ meters
Clouds
  • No significant clouds
Conditions
Becoming Apr-26 @ 20:00 - Apr-27 @ 04:00
Wind Visibility
Variable at 3 knots 10,000+ meters
Clouds
  • No significant clouds
Conditions
Becoming Apr-27 @ 04:00 - Apr-27 @ 06:00
Wind Visibility
140° at 6 knots 10,000+ meters
Clouds
  • No significant clouds
Conditions